createdAt,value
2023-02-13T20:02:06.157Z,74.66
2023-02-13T20:03:09.915Z,74.55
2023-02-13T20:04:13.561Z,74.42
2023-02-13T20:05:17.609Z,74.53
2023-02-13T20:06:22.804Z,74.40
2023-02-13T20:07:26.400Z,74.52
2023-02-13T20:08:30.086Z,74.47
2023-02-13T20:09:33.850Z,74.65
2023-02-13T20:10:37.507Z,74.75
2023-02-13T20:11:41.813Z,74.47
2023-02-13T20:12:45.470Z,74.70
2023-02-13T20:13:53.250Z,74.16
2023-02-13T20:14:56.914Z,74.17
2023-02-13T20:16:00.564Z,74.13
2023-02-13T20:17:06.297Z,73.93
2023-02-13T20:18:09.977Z,73.85
2023-02-13T20:19:14.158Z,74.53
2023-02-13T20:20:18.078Z,74.64
2023-02-13T20:21:21.704Z,74.22
2023-02-13T20:22:25.378Z,74.58
2023-02-13T20:23:29.067Z,74.51
2023-02-13T20:24:32.947Z,74.70
2023-02-13T20:25:37.039Z,74.47
2023-02-13T20:26:40.854Z,74.50
2023-02-13T20:27:44.443Z,74.39
2023-02-13T20:28:48.375Z,74.37
2023-02-13T20:29:58.889Z,73.91
2023-02-13T20:31:11.185Z,74.09
2023-02-13T20:32:16.815Z,74.01
2023-02-13T20:33:20.491Z,74.29
2023-02-13T20:34:24.094Z,74.49
2023-02-13T20:35:27.882Z,74.50
2023-02-13T20:36:32.488Z,74.48
2023-02-13T20:37:39.428Z,75.17
2023-02-13T20:38:43.453Z,74.41
2023-02-13T20:39:49.520Z,75.18
2023-02-13T20:40:53.101Z,74.65
2023-02-13T20:41:56.726Z,74.70
2023-02-13T20:43:03.352Z,74.79
2023-02-13T20:44:09.597Z,74.61
2023-02-13T20:45:30.700Z,74.60
2023-02-13T20:46:37.237Z,74.50
2023-02-13T20:47:42.452Z,74.25
2023-02-13T20:48:47.664Z,74.42
2023-02-13T20:49:51.394Z,74.39
2023-02-13T20:51:05.057Z,74.30
2023-02-13T20:52:08.756Z,74.10
2023-02-13T20:54:38.709Z,74.23
2023-02-13T20:55:42.389Z,74.26
2023-02-13T20:56:50.818Z,74.23
2023-02-13T20:58:16.169Z,74.39
2023-02-13T20:59:19.815Z,74.32
2023-02-13T21:00:23.800Z,74.44
2023-02-13T21:01:29.232Z,74.14
2023-02-13T21:02:33.315Z,74.26
2023-02-13T21:03:38.603Z,74.29
2023-02-13T21:04:42.236Z,74.41
2023-02-13T21:05:45.868Z,74.54
2023-02-13T21:06:49.767Z,74.53
2023-02-13T21:07:53.418Z,74.75
2023-02-13T21:09:05.463Z,74.52
2023-02-13T21:10:09.728Z,74.97
2023-02-13T21:11:13.760Z,74.87
2023-02-13T21:12:17.463Z,75.15
2023-02-13T21:13:21.243Z,74.97
2023-02-13T21:14:24.903Z,74.78
2023-02-13T21:15:29.908Z,74.70
2023-02-13T21:16:35.992Z,74.21
2023-02-13T21:17:39.718Z,74.57
2023-02-13T21:18:45.442Z,74.27
2023-02-13T21:19:49.295Z,74.46
2023-02-13T21:20:53.004Z,73.89
2023-02-13T21:21:56.736Z,74.46
2023-02-13T21:23:00.490Z,74.12
2023-02-13T21:24:08.067Z,74.46
2023-02-13T21:25:12.175Z,74.14
2023-02-13T21:26:17.528Z,74.32
2023-02-13T21:27:21.230Z,74.19
2023-02-13T21:28:25.105Z,73.58
2023-02-13T21:29:28.885Z,73.83
2023-02-13T21:30:32.788Z,73.29
2023-02-13T21:31:38.731Z,73.42
2023-02-13T21:32:42.416Z,73.81
2023-02-13T21:33:47.903Z,73.42
2023-02-13T21:34:51.669Z,73.51
2023-02-13T21:36:01.961Z,73.32
2023-02-13T21:37:05.706Z,73.84
2023-02-13T21:38:09.258Z,73.80
2023-02-13T21:39:13.825Z,73.82
2023-02-13T21:40:17.725Z,73.97
2023-02-13T21:41:21.540Z,73.73
2023-02-13T21:42:25.194Z,73.77
2023-02-13T21:43:28.935Z,74.11
2023-02-13T21:44:32.584Z,73.88
2023-02-13T21:46:15.243Z,73.99
2023-02-13T21:47:09.051Z,73.49
2023-02-13T21:49:31.281Z,73.49
2023-02-13T21:50:34.869Z,73.57
2023-02-13T21:51:38.483Z,73.76
2023-02-13T21:53:03.855Z,73.79
2023-02-13T21:54:07.696Z,73.97
2023-02-13T21:55:11.373Z,73.92
2023-02-13T21:56:16.604Z,73.75
2023-02-13T21:57:20.302Z,73.82
2023-02-13T21:58:23.893Z,74.13
2023-02-13T21:59:28.022Z,73.57
2023-02-13T22:00:31.669Z,74.10
2023-02-13T22:01:36.882Z,74.04
2023-02-13T22:02:40.902Z,73.71
2023-02-13T22:03:44.904Z,73.44
2023-02-13T22:04:50.280Z,73.10
2023-02-13T22:05:54.013Z,73.65
2023-02-13T22:06:57.758Z,73.48
2023-02-13T22:08:01.420Z,73.45
2023-02-13T22:09:06.318Z,73.51
2023-02-13T22:10:11.012Z,73.48
2023-02-13T22:11:14.868Z,73.46
2023-02-13T22:12:18.574Z,73.40
2023-02-13T22:13:22.154Z,73.63
2023-02-13T22:14:25.743Z,73.53
2023-02-13T22:15:29.550Z,73.74
2023-02-13T22:16:34.480Z,73.50
2023-02-13T22:17:38.164Z,73.80
2023-02-13T22:18:43.942Z,73.84
2023-02-13T22:19:49.666Z,73.71
2023-02-13T22:20:53.345Z,73.66
2023-02-13T22:21:56.928Z,74.15
2023-02-13T22:23:00.538Z,73.72
2023-02-13T22:24:04.735Z,73.62
2023-02-13T22:25:09.294Z,73.97
2023-02-13T22:26:16.899Z,73.76
2023-02-13T22:27:20.511Z,73.58
2023-02-13T22:28:24.098Z,73.43
2023-02-13T22:29:27.772Z,73.25
2023-02-13T22:30:31.461Z,73.93
2023-02-13T22:31:35.340Z,73.79
2023-02-13T22:32:40.458Z,73.87
2023-02-13T22:33:47.425Z,73.68
2023-02-13T22:34:55.088Z,73.79
2023-02-13T22:36:00.715Z,73.48
2023-02-13T22:37:04.417Z,73.73
2023-02-13T22:38:08.368Z,73.80
2023-02-13T22:39:13.045Z,74.09
2023-02-13T22:40:16.790Z,74.11
2023-02-13T22:41:22.053Z,73.95
2023-02-13T22:42:25.752Z,73.55
2023-02-13T22:43:29.328Z,73.71
2023-02-13T22:44:33.046Z,73.94
2023-02-13T22:45:37.377Z,73.67
2023-02-13T22:46:41.089Z,73.53
2023-02-13T22:47:44.847Z,74.05
2023-02-13T22:48:48.989Z,74.01
2023-02-13T22:49:54.301Z,74.10
2023-02-13T22:50:58.218Z,73.93
2023-02-13T22:52:02.274Z,74.35
2023-02-13T22:53:05.867Z,73.52
2023-02-13T22:54:11.181Z,74.10
2023-02-13T22:55:14.797Z,74.05
2023-02-13T22:56:18.479Z,74.12
2023-02-13T22:57:22.152Z,74.26
2023-02-13T22:58:26.445Z,74.67
2023-02-13T22:59:30.144Z,74.16
2023-02-13T23:00:33.779Z,73.92
2023-02-13T23:01:37.441Z,74.40
2023-02-13T23:02:41.252Z,73.88
2023-02-13T23:03:45.542Z,74.37
2023-02-13T23:04:49.268Z,74.43
2023-02-13T23:05:54.760Z,74.15
2023-02-13T23:06:58.932Z,74.64
2023-02-13T23:08:02.727Z,74.95
2023-02-13T23:09:06.430Z,74.73
2023-02-13T23:10:10.806Z,74.26
2023-02-13T23:11:17.219Z,74.68
2023-02-13T23:12:21.004Z,74.41
2023-02-13T23:13:24.665Z,74.82
2023-02-13T23:14:28.305Z,74.95
2023-02-13T23:15:33.415Z,74.78
2023-02-13T23:16:37.968Z,74.75
2023-02-13T23:17:44.242Z,74.68
2023-02-13T23:18:52.285Z,74.75
2023-02-13T23:19:55.955Z,75.04
2023-02-13T23:21:05.936Z,74.90
2023-02-13T23:22:09.530Z,75.07
2023-02-13T23:23:13.419Z,75.23
2023-02-13T23:24:17.211Z,75.33
2023-02-13T23:25:22.058Z,75.17
2023-02-13T23:26:25.677Z,75.50
2023-02-13T23:27:29.606Z,75.70
2023-02-13T23:28:33.334Z,75.33
2023-02-13T23:29:37.112Z,75.21
2023-02-13T23:30:41.539Z,75.52
2023-02-13T23:31:45.529Z,75.32
2023-02-13T23:32:49.227Z,75.02
2023-02-13T23:33:52.888Z,75.20
2023-02-13T23:34:56.680Z,75.62
2023-02-13T23:36:01.971Z,75.55
2023-02-13T23:37:05.540Z,75.48
2023-02-13T23:38:09.104Z,75.54
2023-02-13T23:39:12.797Z,75.90
2023-02-13T23:40:18.044Z,75.46
2023-02-13T23:41:21.807Z,75.51
2023-02-13T23:42:25.490Z,75.36
2023-02-13T23:43:29.160Z,75.28
2023-02-13T23:44:32.859Z,75.32
2023-02-13T23:45:36.487Z,75.05
2023-02-13T23:46:40.171Z,75.13
2023-02-13T23:47:43.788Z,75.22
2023-02-13T23:48:47.507Z,75.56
2023-02-13T23:49:51.260Z,75.45
2023-02-13T23:50:54.886Z,75.20
2023-02-13T23:52:00.167Z,74.92
2023-02-13T23:53:03.798Z,75.06
2023-02-13T23:54:07.561Z,75.63
2023-02-13T23:55:11.216Z,75.77
2023-02-13T23:56:14.827Z,75.46
2023-02-13T23:57:18.591Z,75.48
2023-02-13T23:58:22.273Z,75.29
2023-02-13T23:59:26.536Z,75.81
